createdAt,value
2019-01-20T00:03:38.382Z,-2.90
2019-01-20T00:07:47.480Z,-3.00
2019-01-20T00:11:53.767Z,-2.80
2019-01-20T00:16:00.404Z,-2.70
2019-01-20T00:20:07.134Z,-2.90
2019-01-20T00:24:15.381Z,-3.00
2019-01-20T00:28:21.722Z,-3.00
2019-01-20T00:32:28.479Z,-3.00
2019-01-20T00:36:34.740Z,-3.00
2019-01-20T00:40:41.459Z,-3.00
2019-01-20T00:44:49.751Z,-3.00
2019-01-20T00:48:57.934Z,-3.00
2019-01-20T00:53:04.430Z,-3.00
2019-01-20T00:57:12.119Z,-3.00
2019-01-20T01:01:18.483Z,-3.00
2019-01-20T01:05:25.207Z,-3.00
2019-01-20T01:09:31.458Z,-3.10
2019-01-20T01:13:39.160Z,-3.10
2019-01-20T01:17:45.527Z,-3.20
2019-01-20T01:21:52.220Z,-3.30
2019-01-20T01:25:58.493Z,-3.30
2019-01-20T01:30:07.598Z,-3.30
2019-01-20T01:34:13.934Z,-3.20
2019-01-20T01:38:20.506Z,-3.20
2019-01-20T01:42:26.830Z,-3.00
2019-01-20T01:46:34.488Z,-2.60
2019-01-20T01:50:41.398Z,-2.70
2019-01-20T01:54:47.878Z,-2.60
2019-01-20T01:58:54.232Z,-2.70
2019-01-20T02:03:02.336Z,-2.60
2019-01-20T02:07:08.745Z,-2.30
2019-01-20T02:11:15.328Z,-2.30
2019-01-20T02:15:22.724Z,-2.20
2019-01-20T02:19:30.571Z,-2.10
2019-01-20T02:23:36.933Z,-1.90
2019-01-20T02:27:43.739Z,-1.80
2019-01-20T02:31:50.084Z,-1.80
2019-01-20T02:35:57.176Z,-1.60
2019-01-20T02:40:03.489Z,-1.60
2019-01-20T02:44:10.123Z,-1.50
2019-01-20T02:48:16.378Z,-1.50
2019-01-20T02:52:24.558Z,-1.30
2019-01-20T02:56:30.833Z,-1.30
2019-01-20T03:00:37.384Z,-1.30
2019-01-20T03:04:43.740Z,-1.30
2019-01-20T03:08:50.777Z,-1.20
2019-01-20T03:12:57.106Z,-1.20
2019-01-20T03:17:03.536Z,-1.10
2019-01-20T03:21:09.794Z,-1.10
2019-01-20T03:25:18.903Z,-1.10
2019-01-20T03:29:25.327Z,-1.00
2019-01-20T03:33:31.941Z,-1.00
2019-01-20T03:37:38.319Z,-1.00
2019-01-20T03:41:45.628Z,-1.00
2019-01-20T03:45:51.913Z,-0.90
2019-01-20T03:50:01.524Z,-1.00
2019-01-20T03:54:08.935Z,-1.10
2019-01-20T03:58:15.890Z,-1.20
2019-01-20T04:02:23.106Z,-1.40
2019-01-20T04:06:29.804Z,-1.50
2019-01-20T04:10:36.110Z,-1.50
2019-01-20T04:14:43.585Z,-1.70
2019-01-20T04:18:52.900Z,-1.60
2019-01-20T04:22:59.485Z,-1.70
2019-01-20T04:27:05.745Z,-1.60
2019-01-20T04:31:13.820Z,-1.70
2019-01-20T04:35:20.107Z,-1.90
2019-01-20T04:39:26.947Z,-1.90
2019-01-20T04:43:33.263Z,-1.90
2019-01-20T04:47:41.116Z,-2.10
2019-01-20T04:51:47.418Z,-2.30
2019-01-20T04:55:54.515Z,-2.30
2019-01-20T05:00:00.802Z,-2.50
2019-01-20T05:04:10.614Z,-2.40
2019-01-20T05:08:16.968Z,-2.40
2019-01-20T05:12:23.620Z,-2.50
2019-01-20T05:16:29.929Z,-2.50
2019-01-20T05:20:36.794Z,-2.60
2019-01-20T05:24:43.149Z,-2.70
2019-01-20T05:28:49.686Z,-2.60
2019-01-20T05:32:55.955Z,-2.60
2019-01-20T05:37:03.559Z,-2.70
2019-01-20T05:41:10.023Z,-2.80
2019-01-20T05:45:18.658Z,-2.80
2019-01-20T05:49:24.963Z,-2.60
2019-01-20T05:53:32.138Z,-2.80
2019-01-20T05:57:39.883Z,-2.80
2019-01-20T06:01:46.506Z,-3.00
2019-01-20T06:05:52.763Z,-3.00
2019-01-20T06:10:00.251Z,-3.20
2019-01-20T06:14:06.625Z,-3.10
2019-01-20T06:18:13.238Z,-3.10
2019-01-20T06:22:19.499Z,-3.20
2019-01-20T06:26:27.089Z,-3.30
2019-01-20T06:30:34.007Z,-3.50
2019-01-20T06:34:40.452Z,-3.50
2019-01-20T06:38:46.724Z,-3.50
2019-01-20T06:43:01.289Z,-3.40
2019-01-20T06:47:02.315Z,-3.40
2019-01-20T06:51:08.808Z,-3.20
2019-01-20T06:55:16.825Z,-3.30
2019-01-20T06:59:25.139Z,-3.20
2019-01-20T07:03:31.375Z,-3.00
2019-01-20T07:07:38.027Z,-2.50
2019-01-20T07:11:44.325Z,-3.10
2019-01-20T07:15:50.822Z,-3.00
2019-01-20T07:19:57.194Z,-3.00
2019-01-20T07:24:03.859Z,-2.80
2019-01-20T07:28:10.159Z,-2.90
2019-01-20T07:32:18.120Z,-2.90
2019-01-20T07:36:24.445Z,-2.80
2019-01-20T07:40:31.049Z,-2.70
2019-01-20T07:44:37.405Z,-2.60
2019-01-20T07:48:44.989Z,-2.60
2019-01-20T07:52:51.318Z,-2.40
2019-01-20T07:56:57.858Z,-2.20
2019-01-20T08:01:06.681Z,-2.10
2019-01-20T08:05:13.605Z,-2.00
2019-01-20T08:09:22.240Z,-1.90
2019-01-20T08:13:28.860Z,-1.80
2019-01-20T08:17:35.122Z,-1.60
2019-01-20T08:21:42.890Z,-1.70
2019-01-20T08:25:50.740Z,-1.70
2019-01-20T08:29:57.453Z,-1.50
2019-01-20T08:34:03.796Z,-1.30
2019-01-20T08:38:11.106Z,-1.20
2019-01-20T08:42:17.452Z,-1.10
2019-01-20T08:46:44.352Z,-1.10
2019-01-20T08:50:50.673Z,-1.20
2019-01-20T08:54:58.161Z,-1.20
2019-01-20T08:59:04.604Z,-1.00
2019-01-20T09:03:13.348Z,-1.00
2019-01-20T09:07:19.648Z,-0.90
2019-01-20T09:11:26.654Z,-0.80
2019-01-20T09:15:32.929Z,-0.40
2019-01-20T09:19:39.575Z,-0.20
2019-01-20T09:23:45.816Z,-0.90
2019-01-20T09:27:53.042Z,-1.10
2019-01-20T09:31:59.373Z,-1.00
2019-01-20T09:36:06.061Z,-0.60
2019-01-20T09:40:13.919Z,-0.60
2019-01-20T09:44:20.856Z,0.10
2019-01-20T09:48:29.769Z,0.30
2019-01-20T09:52:36.323Z,0.10
2019-01-20T09:56:42.644Z,-0.30
2019-01-20T10:00:49.448Z,-0.20
2019-01-20T10:04:57.183Z,0.00
2019-01-20T10:09:04.121Z,0.30
2019-01-20T10:13:10.475Z,0.30
2019-01-20T10:17:17.804Z,0.00
2019-01-20T10:21:24.067Z,0.30
2019-01-20T10:25:31.333Z,0.30
2019-01-20T10:29:38.288Z,0.50
2019-01-20T10:33:46.526Z,0.60
2019-01-20T10:37:53.823Z,0.90
2019-01-20T10:42:00.694Z,0.60
2019-01-20T10:46:06.932Z,0.40
2019-01-20T10:50:15.089Z,0.30
2019-01-20T10:54:21.383Z,0.20
2019-01-20T10:58:29.457Z,0.20
2019-01-20T11:02:35.696Z,0.20
2019-01-20T11:06:43.681Z,0.70
2019-01-20T11:10:51.661Z,0.50
2019-01-20T11:14:58.357Z,0.50
2019-01-20T11:19:04.719Z,0.80
2019-01-20T11:23:13.085Z,0.20
2019-01-20T11:27:19.447Z,0.00
2019-01-20T11:31:25.933Z,0.20
2019-01-20T11:35:34.236Z,3.70
2019-01-20T11:39:42.767Z,0.70
2019-01-20T11:43:49.030Z,0.70
2019-01-20T11:47:55.697Z,0.80
2019-01-20T11:52:01.984Z,0.20
2019-01-20T11:56:09.342Z,0.30
2019-01-20T12:00:21.365Z,0.50
2019-01-20T12:04:27.968Z,0.80
2019-01-20T12:08:35.840Z,0.60
2019-01-20T12:12:44.876Z,0.80
2019-01-20T12:16:51.235Z,0.70
2019-01-20T12:20:57.639Z,0.80
2019-01-20T12:25:04.475Z,0.70
2019-01-20T12:29:11.079Z,0.60
2019-01-20T12:33:17.411Z,0.50
2019-01-20T12:37:24.041Z,0.50
2019-01-20T12:41:30.323Z,0.30
2019-01-20T12:45:38.970Z,0.80
2019-01-20T12:49:45.344Z,0.90
2019-01-20T12:53:53.059Z,0.70
2019-01-20T12:57:59.372Z,0.40
2019-01-20T13:02:07.424Z,0.10
2019-01-20T13:06:13.773Z,0.10
2019-01-20T13:10:21.281Z,-0.20
2019-01-20T13:14:27.951Z,-0.20
2019-01-20T13:18:35.465Z,-0.40
2019-01-20T13:22:42.059Z,-0.10
2019-01-20T13:27:04.011Z,-0.10
2019-01-20T13:31:25.565Z,-0.30
2019-01-20T13:40:06.768Z,-0.20
2019-01-20T13:44:19.498Z,-0.40
2019-01-20T13:48:25.899Z,-0.40
2019-01-20T13:52:33.604Z,-0.80
2019-01-20T13:56:42.553Z,-0.90
2019-01-20T14:00:50.438Z,-0.90
2019-01-20T14:04:59.629Z,-0.90
2019-01-20T14:09:24.223Z,-0.80
2019-01-20T14:13:34.906Z,-0.90
2019-01-20T14:19:11.292Z,-0.90
2019-01-20T14:23:11.874Z,-0.90
2019-01-20T14:28:09.815Z,-0.60
2019-01-20T14:32:34.522Z,-0.60
2019-01-20T14:37:03.151Z,-0.50
2019-01-20T14:41:15.232Z,-0.60
2019-01-20T14:45:39.515Z,-0.70
2019-01-20T14:49:38.939Z,-0.60
2019-01-20T14:53:55.911Z,-0.50
2019-01-20T14:58:10.371Z,-0.50
2019-01-20T15:02:17.625Z,-0.50
2019-01-20T15:06:23.986Z,-0.40
2019-01-20T15:10:30.820Z,-0.50
2019-01-20T15:14:38.652Z,-0.60
2019-01-20T15:18:46.002Z,-0.80
2019-01-20T15:22:54.677Z,-0.90
2019-01-20T15:27:01.610Z,-1.30
2019-01-20T15:31:09.470Z,-1.40
2019-01-20T15:35:16.974Z,-1.50
2019-01-20T15:39:23.503Z,-1.70
2019-01-20T15:43:30.153Z,-1.50
2019-01-20T15:47:36.582Z,-1.70
2019-01-20T15:51:43.710Z,-1.90
2019-01-20T15:55:51.116Z,-1.90
2019-01-20T15:59:57.640Z,-2.00
2019-01-20T16:04:04.321Z,-1.90
2019-01-20T16:08:12.304Z,-1.90
2019-01-20T16:12:19.101Z,-2.20
2019-01-20T16:16:26.507Z,-2.30
2019-01-20T16:20:33.377Z,-2.20
2019-01-20T16:24:40.602Z,-1.90
2019-01-20T16:28:47.022Z,-1.90
2019-01-20T16:32:54.161Z,-1.90
2019-01-20T16:37:00.666Z,-2.00
2019-01-20T16:41:08.269Z,-2.00
2019-01-20T16:45:16.417Z,-1.90
2019-01-20T16:49:23.162Z,-2.10
2019-01-20T16:53:32.414Z,-2.30
2019-01-20T16:57:40.271Z,-2.00
2019-01-20T17:01:46.734Z,-1.90
2019-01-20T17:05:55.308Z,-2.20
2019-01-20T17:10:01.706Z,-2.50
2019-01-20T17:14:08.617Z,-2.50
2019-01-20T17:18:16.505Z,-2.20
2019-01-20T17:22:23.092Z,-2.00
2019-01-20T17:26:29.401Z,-1.80
2019-01-20T17:30:37.141Z,-1.90
2019-01-20T17:34:43.876Z,-1.90
2019-01-20T17:38:50.373Z,-2.00
2019-01-20T17:42:59.519Z,-1.80
2019-01-20T17:47:07.082Z,-2.00
2019-01-20T17:51:13.442Z,-2.00
2019-01-20T17:55:19.976Z,-2.40
2019-01-20T17:59:26.295Z,-2.40
2019-01-20T18:03:34.103Z,-2.60
2019-01-20T18:07:40.568Z,-2.50
2019-01-20T18:11:47.504Z,-2.30
2019-01-20T18:15:54.814Z,-2.00
2019-01-20T18:20:08.171Z,-1.80
2019-01-20T18:24:14.490Z,-2.00
2019-01-20T18:28:22.578Z,-2.10
2019-01-20T18:32:28.857Z,-2.10
2019-01-20T18:36:36.103Z,-2.00
2019-01-20T18:40:42.385Z,-2.00
2019-01-20T18:44:48.860Z,-1.90
2019-01-20T18:48:55.293Z,-1.60
2019-01-20T18:53:05.624Z,-1.70
2019-01-20T18:57:11.936Z,0.20
2019-01-20T19:01:18.406Z,-1.40
2019-01-20T19:06:02.647Z,-1.50
2019-01-20T19:19:52.196Z,-2.00
2019-01-20T19:23:59.795Z,-2.10
2019-01-20T19:28:06.949Z,-2.00
2019-01-20T19:32:23.322Z,-1.80
2019-01-20T19:36:31.156Z,-1.80
2019-01-20T19:40:37.954Z,-2.00
2019-01-20T19:44:45.328Z,-2.20
2019-01-20T19:48:53.253Z,-2.30
2019-01-20T19:53:02.159Z,-2.30
2019-01-20T19:57:11.826Z,-2.80
2019-01-20T20:01:19.234Z,-2.80
2019-01-20T20:05:25.786Z,-2.80
2019-01-20T20:09:32.800Z,-3.00
2019-01-20T20:13:39.238Z,-3.00
2019-01-20T20:17:45.871Z,-3.10
2019-01-20T20:21:52.535Z,-3.10
2019-01-20T20:25:59.566Z,-2.90
2019-01-20T20:30:09.917Z,-2.80
2019-01-20T20:34:18.270Z,-2.80
2019-01-20T20:38:24.566Z,-2.70
2019-01-20T20:42:31.077Z,-2.50
2019-01-20T20:46:37.480Z,-2.60
2019-01-20T20:50:44.517Z,-1.70
2019-01-20T20:54:50.870Z,-2.40
2019-01-20T20:58:58.616Z,-2.20
2019-01-20T21:03:08.302Z,-2.10
2019-01-20T21:07:16.652Z,-2.10
2019-01-20T21:11:23.026Z,-2.10
2019-01-20T21:15:32.307Z,-1.90
2019-01-20T21:19:38.641Z,-1.70
2019-01-20T21:23:45.429Z,-1.40
2019-01-20T21:27:52.211Z,-1.70
2019-01-20T21:31:58.699Z,-1.80
2019-01-20T21:36:05.014Z,-1.40
2019-01-20T21:40:14.101Z,-1.70
2019-01-20T21:44:20.431Z,-1.70
2019-01-20T21:48:26.992Z,-1.90
2019-01-20T21:52:34.591Z,-2.10
2019-01-20T21:56:41.476Z,-2.40
2019-01-20T22:00:47.764Z,-2.40
2019-01-20T22:04:54.875Z,-2.10
2019-01-20T22:09:01.177Z,-2.10
2019-01-20T22:13:10.238Z,-1.80
2019-01-20T22:17:19.769Z,-2.20
2019-01-20T22:21:26.279Z,-2.00
2019-01-20T22:25:32.560Z,-1.90
2019-01-20T22:29:41.488Z,-1.80
2019-01-20T22:33:47.807Z,-1.80
2019-01-20T22:37:54.477Z,-1.90
2019-01-20T22:42:00.753Z,-1.70
2019-01-20T22:46:09.330Z,-2.20
2019-01-20T22:50:18.448Z,-2.10
2019-01-20T22:54:24.906Z,-2.20
2019-01-20T22:58:31.306Z,-2.10
2019-01-20T23:02:39.473Z,-2.10
2019-01-20T23:06:45.873Z,-2.20
2019-01-20T23:10:52.403Z,-2.00
2019-01-20T23:14:58.700Z,-2.20
2019-01-20T23:19:06.116Z,-2.00
2019-01-20T23:23:12.505Z,-2.20
2019-01-20T23:27:21.527Z,-2.20
2019-01-20T23:31:28.486Z,-2.00
2019-01-20T23:35:36.418Z,-1.90
2019-01-20T23:39:42.716Z,-2.00
2019-01-20T23:43:49.390Z,-2.00
2019-01-20T23:47:55.749Z,-2.00
2019-01-20T23:52:02.523Z,-2.10
2019-01-20T23:56:08.964Z,-2.30
